sensor_id;sensor_type;location;lat;lon;timestamp;pressure;altitude;pressure_sealevel;temperature;humidity
60240;BME280;46102;39.012;-7.064;2023-07-09T00:01:24;98795.00;;;22.49;45.71
60240;BME280;46102;39.012;-7.064;2023-07-09T00:03:25;98791.03;;;22.50;45.55
60240;BME280;46102;39.012;-7.064;2023-07-09T00:05:26;98785.44;;;22.50;45.86
60240;BME280;46102;39.012;-7.064;2023-07-09T00:07:29;98793.81;;;22.50;45.53
60240;BME280;46102;39.012;-7.064;2023-07-09T00:09:31;98783.41;;;22.47;45.89
60240;BME280;46102;39.012;-7.064;2023-07-09T00:11:32;98791.41;;;22.49;45.75
60240;BME280;46102;39.012;-7.064;2023-07-09T00:13:32;98795.03;;;22.53;45.86
60240;BME280;46102;39.012;-7.064;2023-07-09T00:15:33;98791.41;;;22.45;46.07
60240;BME280;46102;39.012;-7.064;2023-07-09T00:17:34;98790.53;;;22.37;46.39
60240;BME280;46102;39.012;-7.064;2023-07-09T00:19:35;98783.34;;;22.33;46.27
60240;BME280;46102;39.012;-7.064;2023-07-09T00:21:35;98779.38;;;22.34;46.61
60240;BME280;46102;39.012;-7.064;2023-07-09T00:23:36;98781.28;;;22.22;46.57
60240;BME280;46102;39.012;-7.064;2023-07-09T00:25:40;98780.09;;;22.23;47.18
60240;BME280;46102;39.012;-7.064;2023-07-09T00:27:44;98769.63;;;22.17;47.02
60240;BME280;46102;39.012;-7.064;2023-07-09T00:29:48;98773.59;;;22.12;47.06
60240;BME280;46102;39.012;-7.064;2023-07-09T00:31:49;98769.97;;;22.04;47.49
60240;BME280;46102;39.012;-7.064;2023-07-09T00:33:50;98766.72;;;21.95;47.64
60240;BME280;46102;39.012;-7.064;2023-07-09T00:35:50;98773.84;;;21.89;47.95
60240;BME280;46102;39.012;-7.064;2023-07-09T00:37:51;98775.81;;;21.85;47.74
60240;BME280;46102;39.012;-7.064;2023-07-09T00:39:52;98778.59;;;21.85;48.27
60240;BME280;46102;39.012;-7.064;2023-07-09T00:41:53;98771.75;;;21.75;48.42
60240;BME280;46102;39.012;-7.064;2023-07-09T00:43:53;98766.28;;;21.90;48.32
60240;BME280;46102;39.012;-7.064;2023-07-09T00:46:14;98764.97;;;21.76;48.25
60240;BME280;46102;39.012;-7.064;2023-07-09T00:48:17;98770.88;;;21.64;48.67
60240;BME280;46102;39.012;-7.064;2023-07-09T00:50:33;98767.25;;;21.63;48.34
60240;BME280;46102;39.012;-7.064;2023-07-09T00:52:39;98768.47;;;21.62;48.47
60240;BME280;46102;39.012;-7.064;2023-07-09T00:54:46;98773.25;;;21.66;48.56
60240;BME280;46102;39.012;-7.064;2023-07-09T00:56:48;98769.63;;;21.58;48.64
60240;BME280;46102;39.012;-7.064;2023-07-09T00:58:53;98775.56;;;21.56;48.77
60240;BME280;46102;39.012;-7.064;2023-07-09T01:01:00;98775.13;;;21.51;49.01
60240;BME280;46102;39.012;-7.064;2023-07-09T01:03:04;98773.09;;;21.48;49.07
60240;BME280;46102;39.012;-7.064;2023-07-09T01:05:05;98773.94;;;21.48;48.92
60240;BME280;46102;39.012;-7.064;2023-07-09T01:07:06;98777.03;;;21.43;49.30
60240;BME280;46102;39.012;-7.064;2023-07-09T01:09:08;98778.63;;;21.40;49.36
60240;BME280;46102;39.012;-7.064;2023-07-09T01:11:19;98785.38;;;21.39;49.49
60240;BME280;46102;39.012;-7.064;2023-07-09T01:13:23;98780.16;;;21.38;49.67
60240;BME280;46102;39.012;-7.064;2023-07-09T01:15:26;98784.94;;;21.37;49.42
60240;BME280;46102;39.012;-7.064;2023-07-09T01:17:28;98783.81;;;21.42;49.56
60240;BME280;46102;39.012;-7.064;2023-07-09T01:19:37;98788.91;;;21.36;49.58
60240;BME280;46102;39.012;-7.064;2023-07-09T01:21:43;98786.53;;;21.35;49.28
60240;BME280;46102;39.012;-7.064;2023-07-09T01:23:45;98790.47;;;21.34;49.84
60240;BME280;46102;39.012;-7.064;2023-07-09T01:25:50;98798.84;;;21.34;49.80
60240;BME280;46102;39.012;-7.064;2023-07-09T01:27:54;98793.69;;;21.32;49.78
60240;BME280;46102;39.012;-7.064;2023-07-09T01:29:56;98792.84;;;21.32;49.54
60240;BME280;46102;39.012;-7.064;2023-07-09T01:31:57;98787.28;;;21.32;49.81
60240;BME280;46102;39.012;-7.064;2023-07-09T01:33:58;98795.22;;;21.30;50.17
60240;BME280;46102;39.012;-7.064;2023-07-09T01:35:59;98797.94;;;21.23;49.90
60240;BME280;46102;39.012;-7.064;2023-07-09T01:38:01;98792.78;;;21.25;50.16
60240;BME280;46102;39.012;-7.064;2023-07-09T01:40:03;98796.72;;;21.20;50.30
60240;BME280;46102;39.012;-7.064;2023-07-09T01:42:06;98789.50;;;21.15;50.53
60240;BME280;46102;39.012;-7.064;2023-07-09T01:44:08;98789.94;;;21.17;50.41
60240;BME280;46102;39.012;-7.064;2023-07-09T01:46:10;98776.34;;;21.12;50.20
60240;BME280;46102;39.012;-7.064;2023-07-09T01:48:12;98777.84;;;21.06;50.55
60240;BME280;46102;39.012;-7.064;2023-07-09T01:50:16;98775.41;;;21.01;50.52
60240;BME280;46102;39.012;-7.064;2023-07-09T01:52:18;98780.53;;;20.95;51.01
60240;BME280;46102;39.012;-7.064;2023-07-09T01:54:19;98779.34;;;20.96;51.15
60240;BME280;46102;39.012;-7.064;2023-07-09T01:56:20;98769.34;;;20.92;51.11
60240;BME280;46102;39.012;-7.064;2023-07-09T01:58:21;98776.47;;;20.89;50.99
60240;BME280;46102;39.012;-7.064;2023-07-09T02:00:26;98773.66;;;20.89;51.15
60240;BME280;46102;39.012;-7.064;2023-07-09T02:02:27;98775.22;;;20.83;51.40
60240;BME280;46102;39.012;-7.064;2023-07-09T02:04:29;98784.81;;;20.89;51.47
60240;BME280;46102;39.012;-7.064;2023-07-09T02:06:32;98782.72;;;20.79;51.39
60240;BME280;46102;39.012;-7.064;2023-07-09T02:08:33;98783.38;;;20.69;51.90
60240;BME280;46102;39.012;-7.064;2023-07-09T02:10:34;98794.34;;;20.54;52.35
60240;BME280;46102;39.012;-7.064;2023-07-09T02:12:34;98797.88;;;20.51;52.36
60240;BME280;46102;39.012;-7.064;2023-07-09T02:14:36;98797.88;;;20.51;52.33
60240;BME280;46102;39.012;-7.064;2023-07-09T02:16:37;98799.06;;;20.50;52.31
60240;BME280;46102;39.012;-7.064;2023-07-09T02:18:38;98804.59;;;20.47;52.75
60240;BME280;46102;39.012;-7.064;2023-07-09T02:20:39;98804.09;;;20.41;53.13
60240;BME280;46102;39.012;-7.064;2023-07-09T02:22:41;98797.22;;;20.31;53.08
60240;BME280;46102;39.012;-7.064;2023-07-09T02:24:42;98802.56;;;20.17;53.98
60240;BME280;46102;39.012;-7.064;2023-07-09T02:26:43;98799.34;;;20.15;54.02
60240;BME280;46102;39.012;-7.064;2023-07-09T02:28:43;98807.28;;;20.13;54.14
60240;BME280;46102;39.012;-7.064;2023-07-09T02:30:44;98797.16;;;20.01;54.19
60240;BME280;46102;39.012;-7.064;2023-07-09T02:32:45;98796.78;;;20.03;54.26
60240;BME280;46102;39.012;-7.064;2023-07-09T02:34:46;98793.66;;;20.08;54.33
60240;BME280;46102;39.012;-7.064;2023-07-09T02:36:54;98801.56;;;20.02;54.37
60240;BME280;46102;39.012;-7.064;2023-07-09T02:38:55;98796.00;;;20.02;54.36
60240;BME280;46102;39.012;-7.064;2023-07-09T02:40:56;98799.22;;;20.04;54.46
60240;BME280;46102;39.012;-7.064;2023-07-09T02:42:56;98800.72;;;20.02;54.53
60240;BME280;46102;39.012;-7.064;2023-07-09T02:44:57;98800.38;;;20.03;54.56
60240;BME280;46102;39.012;-7.064;2023-07-09T02:47:00;98802.00;;;20.04;54.56
60240;BME280;46102;39.012;-7.064;2023-07-09T02:49:04;98800.69;;;19.98;54.67
60240;BME280;46102;39.012;-7.064;2023-07-09T02:51:07;98791.59;;;20.01;54.87
60240;BME280;46102;39.012;-7.064;2023-07-09T02:53:08;98797.47;;;19.96;54.99
60240;BME280;46102;39.012;-7.064;2023-07-09T02:55:09;98784.94;;;19.83;55.25
60240;BME280;46102;39.012;-7.064;2023-07-09T02:57:10;98792.69;;;19.70;55.69
60240;BME280;46102;39.012;-7.064;2023-07-09T02:59:10;98801.75;;;19.67;55.82
60240;BME280;46102;39.012;-7.064;2023-07-09T03:01:11;98802.22;;;19.69;55.94
60240;BME280;46102;39.012;-7.064;2023-07-09T03:03:13;98808.06;;;19.64;56.19
60240;BME280;46102;39.012;-7.064;2023-07-09T03:05:13;98812.69;;;19.56;56.22
60240;BME280;46102;39.012;-7.064;2023-07-09T03:07:14;98814.19;;;19.50;56.25
60240;BME280;46102;39.012;-7.064;2023-07-09T03:09:15;98811.81;;;19.52;56.53
60240;BME280;46102;39.012;-7.064;2023-07-09T03:11:16;98810.91;;;19.44;56.71
60240;BME280;46102;39.012;-7.064;2023-07-09T03:13:17;98810.78;;;19.37;56.80
60240;BME280;46102;39.012;-7.064;2023-07-09T03:15:18;98809.22;;;19.40;57.05
60240;BME280;46102;39.012;-7.064;2023-07-09T03:17:18;98808.34;;;19.35;57.02
60240;BME280;46102;39.012;-7.064;2023-07-09T03:19:19;98804.69;;;19.31;56.98
60240;BME280;46102;39.012;-7.064;2023-07-09T03:21:22;98815.09;;;19.34;56.94
60240;BME280;46102;39.012;-7.064;2023-07-09T03:23:23;98809.97;;;19.37;56.86
60240;BME280;46102;39.012;-7.064;2023-07-09T03:25:24;98810.91;;;19.44;56.64
60240;BME280;46102;39.012;-7.064;2023-07-09T03:27:24;98816.38;;;19.41;56.89
60240;BME280;46102;39.012;-7.064;2023-07-09T03:29:25;98818.75;;;19.39;56.81
60240;BME280;46102;39.012;-7.064;2023-07-09T03:31:26;98812.75;;;19.37;56.86
60240;BME280;46102;39.012;-7.064;2023-07-09T03:33:27;98814.28;;;19.34;56.88
60240;BME280;46102;39.012;-7.064;2023-07-09T03:35:28;98806.69;;;19.31;56.94
60240;BME280;46102;39.012;-7.064;2023-07-09T03:37:29;98807.88;;;19.30;57.07
60240;BME280;46102;39.012;-7.064;2023-07-09T03:39:29;98812.56;;;19.26;57.17
60240;BME280;46102;39.012;-7.064;2023-07-09T03:41:30;98807.34;;;19.24;57.33
60240;BME280;46102;39.012;-7.064;2023-07-09T03:43:31;98804.56;;;19.24;57.33
60240;BME280;46102;39.012;-7.064;2023-07-09T03:45:32;98813.66;;;19.21;57.20
60240;BME280;46102;39.012;-7.064;2023-07-09T03:47:33;98821.34;;;19.28;57.35
60240;BME280;46102;39.012;-7.064;2023-07-09T03:49:34;98813.72;;;19.25;57.29
60240;BME280;46102;39.012;-7.064;2023-07-09T03:51:35;98817.81;;;19.11;57.66
60240;BME280;46102;39.012;-7.064;2023-07-09T03:53:35;98814.19;;;19.07;57.67
60240;BME280;46102;39.012;-7.064;2023-07-09T03:55:36;98814.44;;;18.99;57.96
60240;BME280;46102;39.012;-7.064;2023-07-09T03:57:37;98820.69;;;18.96;58.09
60240;BME280;46102;39.012;-7.064;2023-07-09T03:59:38;98809.22;;;18.97;58.14
60240;BME280;46102;39.012;-7.064;2023-07-09T04:01:40;98813.41;;;18.87;58.35
60240;BME280;46102;39.012;-7.064;2023-07-09T04:03:46;98809.22;;;18.78;58.52
60240;BME280;46102;39.012;-7.064;2023-07-09T04:05:48;98816.28;;;18.75;58.49
60240;BME280;46102;39.012;-7.064;2023-07-09T04:07:49;98817.47;;;18.74;58.57
60240;BME280;46102;39.012;-7.064;2023-07-09T04:09:50;98820.78;;;18.80;58.33
60240;BME280;46102;39.012;-7.064;2023-07-09T04:11:51;98821.16;;;18.78;58.43
60240;BME280;46102;39.012;-7.064;2023-07-09T04:13:51;98817.66;;;18.81;58.37
60240;BME280;46102;39.012;-7.064;2023-07-09T04:15:52;98827.03;;;18.77;58.54
60240;BME280;46102;39.012;-7.064;2023-07-09T04:17:53;98825.44;;;18.76;58.50
60240;BME280;46102;39.012;-7.064;2023-07-09T04:19:55;98833.25;;;18.70;58.68
60240;BME280;46102;39.012;-7.064;2023-07-09T04:21:55;98822.59;;;18.72;58.49
60240;BME280;46102;39.012;-7.064;2023-07-09T04:23:56;98832.81;;;18.68;58.67
60240;BME280;46102;39.012;-7.064;2023-07-09T04:25:57;98822.06;;;18.66;58.69
60240;BME280;46102;39.012;-7.064;2023-07-09T04:27:59;98832.22;;;18.59;59.00
60240;BME280;46102;39.012;-7.064;2023-07-09T04:30:00;98828.13;;;18.52;59.14
60240;BME280;46102;39.012;-7.064;2023-07-09T04:32:02;98839.97;;;18.49;59.07
60240;BME280;46102;39.012;-7.064;2023-07-09T04:34:03;98847.84;;;18.47;59.11
60240;BME280;46102;39.012;-7.064;2023-07-09T04:36:05;98848.94;;;18.43;59.41
60240;BME280;46102;39.012;-7.064;2023-07-09T04:38:06;98846.00;;;18.36;59.59
60240;BME280;46102;39.012;-7.064;2023-07-09T04:40:08;98841.59;;;18.35;59.70
60240;BME280;46102;39.012;-7.064;2023-07-09T04:42:12;98840.81;;;18.34;59.79
60240;BME280;46102;39.012;-7.064;2023-07-09T04:44:14;98838.22;;;18.25;60.04
60240;BME280;46102;39.012;-7.064;2023-07-09T04:46:15;98840.41;;;18.16;60.16
60240;BME280;46102;39.012;-7.064;2023-07-09T04:48:16;98851.22;;;18.21;60.27
60240;BME280;46102;39.012;-7.064;2023-07-09T04:50:17;98856.16;;;18.12;60.28
60240;BME280;46102;39.012;-7.064;2023-07-09T04:52:17;98857.34;;;18.11;60.45
60240;BME280;46102;39.012;-7.064;2023-07-09T04:54:18;98850.00;;;18.03;60.74
60240;BME280;46102;39.012;-7.064;2023-07-09T04:56:19;98858.03;;;18.08;60.82
60240;BME280;46102;39.012;-7.064;2023-07-09T04:58:20;98854.84;;;18.06;60.67
60240;BME280;46102;39.012;-7.064;2023-07-09T05:00:21;98849.38;;;17.94;61.05
60240;BME280;46102;39.012;-7.064;2023-07-09T05:02:22;98857.25;;;17.92;61.20
60240;BME280;46102;39.012;-7.064;2023-07-09T05:04:23;98851.88;;;17.83;61.62
60240;BME280;46102;39.012;-7.064;2023-07-09T05:06:24;98854.66;;;17.83;61.65
60240;BME280;46102;39.012;-7.064;2023-07-09T05:08:25;98854.16;;;17.81;61.52
60240;BME280;46102;39.012;-7.064;2023-07-09T05:10:26;98856.94;;;17.81;61.97
60240;BME280;46102;39.012;-7.064;2023-07-09T05:12:27;98855.47;;;17.83;61.88
60240;BME280;46102;39.012;-7.064;2023-07-09T05:14:28;98858.47;;;17.78;62.05
60240;BME280;46102;39.012;-7.064;2023-07-09T05:16:29;98852.28;;;17.69;62.13
60240;BME280;46102;39.012;-7.064;2023-07-09T05:18:30;98855.63;;;17.75;62.26
60240;BME280;46102;39.012;-7.064;2023-07-09T05:20:30;98863.41;;;17.69;62.30
60240;BME280;46102;39.012;-7.064;2023-07-09T05:22:31;98862.59;;;17.68;62.21
60240;BME280;46102;39.012;-7.064;2023-07-09T05:24:32;98862.59;;;17.68;62.34
60240;BME280;46102;39.012;-7.064;2023-07-09T05:26:33;98858.75;;;17.73;62.13
60240;BME280;46102;39.012;-7.064;2023-07-09T05:28:33;98870.13;;;17.68;62.25
60240;BME280;46102;39.012;-7.064;2023-07-09T05:30:34;98861.06;;;17.71;62.14
60240;BME280;46102;39.012;-7.064;2023-07-09T05:32:36;98861.78;;;17.68;62.30
60240;BME280;46102;39.012;-7.064;2023-07-09T05:34:37;98859.03;;;17.68;62.45
60240;BME280;46102;39.012;-7.064;2023-07-09T05:36:39;98861.25;;;17.62;62.56
60240;BME280;46102;39.012;-7.064;2023-07-09T05:38:39;98869.66;;;17.66;62.47
60240;BME280;46102;39.012;-7.064;2023-07-09T05:40:41;98871.63;;;17.65;62.66
60240;BME280;46102;39.012;-7.064;2023-07-09T05:42:42;98874.59;;;17.57;62.85
60240;BME280;46102;39.012;-7.064;2023-07-09T05:44:43;98876.19;;;17.58;62.91
60240;BME280;46102;39.012;-7.064;2023-07-09T05:46:43;98877.44;;;17.60;62.82
60240;BME280;46102;39.012;-7.064;2023-07-09T05:48:44;98867.06;;;17.57;62.83
60240;BME280;46102;39.012;-7.064;2023-07-09T05:50:45;98870.28;;;17.59;62.90
60240;BME280;46102;39.012;-7.064;2023-07-09T05:52:46;98869.72;;;17.54;62.99
60240;BME280;46102;39.012;-7.064;2023-07-09T05:54:49;98878.03;;;17.54;63.23
60240;BME280;46102;39.012;-7.064;2023-07-09T05:56:50;98871.34;;;17.55;63.04
60240;BME280;46102;39.012;-7.064;2023-07-09T05:58:51;98882.28;;;17.63;63.07
60240;BME280;46102;39.012;-7.064;2023-07-09T06:00:53;98884.00;;;17.68;62.85
60240;BME280;46102;39.012;-7.064;2023-07-09T06:02:54;98878.97;;;17.74;62.96
60240;BME280;46102;39.012;-7.064;2023-07-09T06:04:55;98878.16;;;17.73;62.54
60240;BME280;46102;39.012;-7.064;2023-07-09T06:06:58;98872.34;;;17.78;62.73
60240;BME280;46102;39.012;-7.064;2023-07-09T06:08:59;98870.16;;;17.84;62.60
60240;BME280;46102;39.012;-7.064;2023-07-09T06:11:02;98870.03;;;17.80;62.79
60240;BME280;46102;39.012;-7.064;2023-07-09T06:13:03;98870.94;;;17.84;62.53
60240;BME280;46102;39.012;-7.064;2023-07-09T06:15:04;98865.22;;;17.93;62.42
60240;BME280;46102;39.012;-7.064;2023-07-09T06:17:05;98862.91;;;17.95;61.96
60240;BME280;46102;39.012;-7.064;2023-07-09T06:19:06;98870.94;;;18.00;61.96
60240;BME280;46102;39.012;-7.064;2023-07-09T06:21:07;98866.66;;;18.03;61.97
60240;BME280;46102;39.012;-7.064;2023-07-09T06:23:09;98878.47;;;18.00;61.99
60240;BME280;46102;39.012;-7.064;2023-07-09T06:25:10;98870.41;;;18.10;61.68
60240;BME280;46102;39.012;-7.064;2023-07-09T06:27:11;98874.78;;;18.27;61.06
60240;BME280;46102;39.012;-7.064;2023-07-09T06:29:12;98878.25;;;18.40;60.37
60240;BME280;46102;39.012;-7.064;2023-07-09T06:31:12;98873.81;;;18.55;59.89
60240;BME280;46102;39.012;-7.064;2023-07-09T06:33:14;98884.72;;;18.64;59.59
60240;BME280;46102;39.012;-7.064;2023-07-09T06:35:15;98880.94;;;18.72;59.39
60240;BME280;46102;39.012;-7.064;2023-07-09T06:37:16;98881.25;;;18.86;58.63
60240;BME280;46102;39.012;-7.064;2023-07-09T06:39:18;98887.72;;;18.90;58.67
60240;BME280;46102;39.012;-7.064;2023-07-09T06:41:20;98884.81;;;19.03;58.55
60240;BME280;46102;39.012;-7.064;2023-07-09T06:43:21;98897.38;;;19.16;58.14
60240;BME280;46102;39.012;-7.064;2023-07-09T06:45:23;98891.88;;;19.39;57.39
60240;BME280;46102;39.012;-7.064;2023-07-09T06:47:24;98903.22;;;19.50;56.54
60240;BME280;46102;39.012;-7.064;2023-07-09T06:49:25;98905.69;;;19.55;56.13
60240;BME280;46102;39.012;-7.064;2023-07-09T06:51:26;98894.56;;;19.55;56.23
60240;BME280;46102;39.012;-7.064;2023-07-09T06:53:27;98894.19;;;19.56;55.70
60240;BME280;46102;39.012;-7.064;2023-07-09T06:55:28;98902.59;;;19.60;55.76
60240;BME280;46102;39.012;-7.064;2023-07-09T06:57:29;98900.69;;;19.64;55.90
60240;BME280;46102;39.012;-7.064;2023-07-09T06:59:30;98902.28;;;19.65;56.13
60240;BME280;46102;39.012;-7.064;2023-07-09T07:01:31;98903.63;;;19.71;55.55
60240;BME280;46102;39.012;-7.064;2023-07-09T07:03:32;98915.56;;;19.72;55.61
60240;BME280;46102;39.012;-7.064;2023-07-09T07:05:33;98915.13;;;19.70;55.65
60240;BME280;46102;39.012;-7.064;2023-07-09T07:07:34;98919.22;;;19.76;55.57
60240;BME280;46102;39.012;-7.064;2023-07-09T07:09:35;98914.66;;;19.87;55.24
60240;BME280;46102;39.012;-7.064;2023-07-09T07:11:36;98921.16;;;19.95;55.00
60240;BME280;46102;39.012;-7.064;2023-07-09T07:13:41;98915.63;;;19.99;54.55
60240;BME280;46102;39.012;-7.064;2023-07-09T07:15:48;98931.66;;;20.05;54.59
60240;BME280;46102;39.012;-7.064;2023-07-09T07:17:50;98922.81;;;20.23;54.21
60240;BME280;46102;39.012;-7.064;2023-07-09T07:19:50;98917.63;;;20.48;53.71
60240;BME280;46102;39.012;-7.064;2023-07-09T07:21:52;98916.75;;;20.67;53.01
60240;BME280;46102;39.012;-7.064;2023-07-09T07:23:52;98920.19;;;20.83;52.71
60240;BME280;46102;39.012;-7.064;2023-07-09T07:25:53;98923.81;;;20.87;51.99
60240;BME280;46102;39.012;-7.064;2023-07-09T07:27:55;98919.94;;;20.95;51.75
60240;BME280;46102;39.012;-7.064;2023-07-09T07:29:55;98931.59;;;21.01;51.52
60240;BME280;46102;39.012;-7.064;2023-07-09T07:31:57;98932.19;;;21.17;51.24
60240;BME280;46102;39.012;-7.064;2023-07-09T07:33:57;98925.88;;;21.24;51.33
60240;BME280;46102;39.012;-7.064;2023-07-09T07:35:58;98926.06;;;21.38;50.65
60240;BME280;46102;39.012;-7.064;2023-07-09T07:37:59;98926.69;;;21.55;49.92
60240;BME280;46102;39.012;-7.064;2023-07-09T07:40:00;98914.03;;;21.68;49.49
60240;BME280;46102;39.012;-7.064;2023-07-09T07:42:01;98925.38;;;21.82;49.21
60240;BME280;46102;39.012;-7.064;2023-07-09T07:44:02;98921.56;;;22.01;48.09
60240;BME280;46102;39.012;-7.064;2023-07-09T07:46:03;98928.09;;;22.16;48.09
60240;BME280;46102;39.012;-7.064;2023-07-09T07:48:04;98924.59;;;22.27;47.62
60240;BME280;46102;39.012;-7.064;2023-07-09T07:50:06;98922.91;;;22.18;47.91
60240;BME280;46102;39.012;-7.064;2023-07-09T07:52:07;98913.41;;;22.27;47.59
60240;BME280;46102;39.012;-7.064;2023-07-09T07:54:07;98917.56;;;22.43;47.04
60240;BME280;46102;39.012;-7.064;2023-07-09T07:56:10;98909.28;;;22.61;46.68
60240;BME280;46102;39.012;-7.064;2023-07-09T07:58:12;98916.88;;;22.64;46.68
60240;BME280;46102;39.012;-7.064;2023-07-09T08:00:14;98919.00;;;22.82;46.17
60240;BME280;46102;39.012;-7.064;2023-07-09T08:02:15;98907.50;;;22.98;45.27
60240;BME280;46102;39.012;-7.064;2023-07-09T08:04:15;98909.63;;;23.15;44.67
60240;BME280;46102;39.012;-7.064;2023-07-09T08:06:16;98912.06;;;23.35;43.66
60240;BME280;46102;39.012;-7.064;2023-07-09T08:08:17;98912.91;;;23.42;43.01
60240;BME280;46102;39.012;-7.064;2023-07-09T08:10:18;98924.16;;;23.53;42.83
60240;BME280;46102;39.012;-7.064;2023-07-09T08:12:19;98921.44;;;23.78;42.62
60240;BME280;46102;39.012;-7.064;2023-07-09T08:14:20;98928.69;;;24.12;41.48
60240;BME280;46102;39.012;-7.064;2023-07-09T08:16:21;98932.28;;;24.26;40.85
60240;BME280;46102;39.012;-7.064;2023-07-09T08:18:22;98932.69;;;24.36;40.91
60240;BME280;46102;39.012;-7.064;2023-07-09T08:20:23;98925.50;;;24.60;40.40
60240;BME280;46102;39.012;-7.064;2023-07-09T08:22:23;98934.28;;;24.76;39.37
60240;BME280;46102;39.012;-7.064;2023-07-09T08:24:24;98936.25;;;24.90;38.91
60240;BME280;46102;39.012;-7.064;2023-07-09T08:26:25;98934.59;;;25.07;38.34
60240;BME280;46102;39.012;-7.064;2023-07-09T08:28:26;98933.78;;;25.10;37.88
60240;BME280;46102;39.012;-7.064;2023-07-09T08:30:27;98926.94;;;25.22;36.54
60240;BME280;46102;39.012;-7.064;2023-07-09T08:32:28;98934.16;;;25.30;36.69
60240;BME280;46102;39.012;-7.064;2023-07-09T08:34:30;98938.50;;;25.45;36.89
60240;BME280;46102;39.012;-7.064;2023-07-09T08:36:30;98934.00;;;25.59;36.59
60240;BME280;46102;39.012;-7.064;2023-07-09T08:38:31;98942.34;;;25.73;36.33
60240;BME280;46102;39.012;-7.064;2023-07-09T08:40:32;98932.69;;;25.81;35.71
60240;BME280;46102;39.012;-7.064;2023-07-09T08:42:41;98928.63;;;25.93;36.00
60240;BME280;46102;39.012;-7.064;2023-07-09T08:47:07;98941.16;;;26.33;35.30
60240;BME280;46102;39.012;-7.064;2023-07-09T08:49:18;98932.41;;;26.24;35.58
60240;BME280;46102;39.012;-7.064;2023-07-09T08:51:28;98927.47;;;26.39;35.17
60240;BME280;46102;39.012;-7.064;2023-07-09T08:53:42;98921.34;;;26.48;34.80
60240;BME280;46102;39.012;-7.064;2023-07-09T08:55:47;98926.44;;;26.67;34.40
60240;BME280;46102;39.012;-7.064;2023-07-09T08:58:03;98923.84;;;26.84;33.97
60240;BME280;46102;39.012;-7.064;2023-07-09T09:00:22;98920.34;;;27.10;33.14
60240;BME280;46102;39.012;-7.064;2023-07-09T09:02:32;98921.81;;;27.22;32.92
60240;BME280;46102;39.012;-7.064;2023-07-09T09:04:36;98925.75;;;27.32;32.95
60240;BME280;46102;39.012;-7.064;2023-07-09T09:06:40;98922.56;;;27.30;33.26
60240;BME280;46102;39.012;-7.064;2023-07-09T09:09:05;98916.44;;;27.35;32.75
60240;BME280;46102;39.012;-7.064;2023-07-09T09:11:52;98917.81;;;27.23;32.43
60240;BME280;46102;39.012;-7.064;2023-07-09T09:14:01;98922.34;;;27.44;32.71
60240;BME280;46102;39.012;-7.064;2023-07-09T09:16:09;98913.81;;;27.78;31.20
60240;BME280;46102;39.012;-7.064;2023-07-09T09:20:22;98907.38;;;28.32;30.32
60240;BME280;46102;39.012;-7.064;2023-07-09T09:22:43;98906.16;;;28.33;30.08
60240;BME280;46102;39.012;-7.064;2023-07-09T09:26:57;98905.94;;;28.48;29.46
60240;BME280;46102;39.012;-7.064;2023-07-09T09:28:58;98902.97;;;28.55;28.96
60240;BME280;46102;39.012;-7.064;2023-07-09T09:30:59;98898.22;;;28.52;28.75
60240;BME280;46102;39.012;-7.064;2023-07-09T09:33:04;98892.94;;;28.54;28.72
60240;BME280;46102;39.012;-7.064;2023-07-09T09:35:15;98895.63;;;28.61;28.40
60240;BME280;46102;39.012;-7.064;2023-07-09T09:37:26;98902.97;;;28.78;27.55
60240;BME280;46102;39.012;-7.064;2023-07-09T09:39:27;98899.13;;;28.89;27.10
60240;BME280;46102;39.012;-7.064;2023-07-09T09:41:34;98897.81;;;28.93;26.54
60240;BME280;46102;39.012;-7.064;2023-07-09T09:43:37;98894.59;;;28.95;25.79
60240;BME280;46102;39.012;-7.064;2023-07-09T09:45:39;98896.13;;;29.19;25.63
60240;BME280;46102;39.012;-7.064;2023-07-09T09:47:40;98905.03;;;29.38;26.44
60240;BME280;46102;39.012;-7.064;2023-07-09T09:49:42;98900.22;;;29.55;25.09
60240;BME280;46102;39.012;-7.064;2023-07-09T09:51:45;98902.97;;;29.58;25.61
60240;BME280;46102;39.012;-7.064;2023-07-09T09:53:49;98906.69;;;29.92;23.65
60240;BME280;46102;39.012;-7.064;2023-07-09T09:55:52;98898.56;;;30.26;23.34
60240;BME280;46102;39.012;-7.064;2023-07-09T09:57:55;98908.81;;;30.53;22.68
60240;BME280;46102;39.012;-7.064;2023-07-09T09:59:58;98914.81;;;30.71;21.99
60240;BME280;46102;39.012;-7.064;2023-07-09T10:02:01;98913.38;;;30.80;21.20
60240;BME280;46102;39.012;-7.064;2023-07-09T10:04:04;98911.22;;;31.00;20.32
60240;BME280;46102;39.012;-7.064;2023-07-09T10:10:32;98902.75;;;31.42;21.43
60240;BME280;46102;39.012;-7.064;2023-07-09T10:12:45;98912.31;;;31.32;20.47
60240;BME280;46102;39.012;-7.064;2023-07-09T10:15:01;98902.00;;;31.25;21.02
60240;BME280;46102;39.012;-7.064;2023-07-09T10:19:24;98916.38;;;31.18;21.30
60240;BME280;46102;39.012;-7.064;2023-07-09T10:22:00;98909.63;;;31.28;20.11
60240;BME280;46102;39.012;-7.064;2023-07-09T10:24:22;98912.03;;;31.43;20.23
60240;BME280;46102;39.012;-7.064;2023-07-09T10:26:34;98910.50;;;31.67;19.67
60240;BME280;46102;39.012;-7.064;2023-07-09T10:28:48;98911.63;;;31.57;19.61
60240;BME280;46102;39.012;-7.064;2023-07-09T10:35:05;98901.53;;;32.33;19.31
60240;BME280;46102;39.012;-7.064;2023-07-09T10:37:42;98901.84;;;32.48;19.24
60240;BME280;46102;39.012;-7.064;2023-07-09T10:39:49;98911.41;;;32.76;18.29
60240;BME280;46102;39.012;-7.064;2023-07-09T10:41:56;98900.53;;;33.09;18.17
60240;BME280;46102;39.012;-7.064;2023-07-09T10:46:16;98896.31;;;33.67;17.14
60240;BME280;46102;39.012;-7.064;2023-07-09T10:48:31;98895.91;;;33.78;17.07
60240;BME280;46102;39.012;-7.064;2023-07-09T10:50:37;98896.06;;;33.84;17.23
60240;BME280;46102;39.012;-7.064;2023-07-09T10:52:44;98887.38;;;33.78;16.97
60240;BME280;46102;39.012;-7.064;2023-07-09T10:57:00;98897.56;;;33.35;17.53
60240;BME280;46102;39.012;-7.064;2023-07-09T11:01:27;98888.50;;;33.27;17.49
60240;BME280;46102;39.012;-7.064;2023-07-09T11:03:38;98886.28;;;33.53;17.04
60240;BME280;46102;39.012;-7.064;2023-07-09T11:05:40;98884.22;;;33.54;16.78
60240;BME280;46102;39.012;-7.064;2023-07-09T11:08:02;98884.50;;;33.69;17.15